sensor_id;sensor_type;location;lat;lon;timestamp;P1;durP1;ratioP1;P2;durP2;ratioP2
75459;SDS011;64039;53.060;9.342;2023-02-08T00:01:12;18.08;;;7.97;;
75459;SDS011;64039;53.060;9.342;2023-02-08T00:03:39;16.15;;;8.18;;
75459;SDS011;64039;53.060;9.342;2023-02-08T00:06:05;16.48;;;7.93;;
75459;SDS011;64039;53.060;9.342;2023-02-08T00:08:32;18.20;;;8.57;;
75459;SDS011;64039;53.060;9.342;2023-02-08T00:10:58;14.68;;;7.57;;
75459;SDS011;64039;53.060;9.342;2023-02-08T00:13:24;18.00;;;7.75;;
75459;SDS011;64039;53.060;9.342;2023-02-08T00:15:50;15.63;;;8.25;;
75459;SDS011;64039;53.060;9.342;2023-02-08T00:18:18;15.70;;;8.07;;
75459;SDS011;64039;53.060;9.342;2023-02-08T00:20:46;16.38;;;8.00;;
75459;SDS011;64039;53.060;9.342;2023-02-08T00:23:12;14.85;;;7.72;;
75459;SDS011;64039;53.060;9.342;2023-02-08T00:25:38;14.25;;;7.72;;
75459;SDS011;64039;53.060;9.342;2023-02-08T00:28:05;16.50;;;7.47;;
75459;SDS011;64039;53.060;9.342;2023-02-08T00:30:32;17.25;;;8.18;;
75459;SDS011;64039;53.060;9.342;2023-02-08T00:32:57;16.42;;;8.15;;
75459;SDS011;64039;53.060;9.342;2023-02-08T00:35:25;16.70;;;8.70;;
75459;SDS011;64039;53.060;9.342;2023-02-08T00:37:50;15.35;;;7.95;;
75459;SDS011;64039;53.060;9.342;2023-02-08T00:40:16;15.75;;;8.10;;
75459;SDS011;64039;53.060;9.342;2023-02-08T00:42:41;17.85;;;8.60;;
75459;SDS011;64039;53.060;9.342;2023-02-08T00:45:07;15.85;;;8.35;;
75459;SDS011;64039;53.060;9.342;2023-02-08T00:47:33;15.60;;;8.27;;
75459;SDS011;64039;53.060;9.342;2023-02-08T00:49:58;17.27;;;8.30;;
75459;SDS011;64039;53.060;9.342;2023-02-08T00:52:23;19.70;;;9.10;;
75459;SDS011;64039;53.060;9.342;2023-02-08T00:54:49;17.35;;;9.38;;
75459;SDS011;64039;53.060;9.342;2023-02-08T00:57:14;14.65;;;8.82;;
75459;SDS011;64039;53.060;9.342;2023-02-08T00:59:40;16.45;;;9.00;;
75459;SDS011;64039;53.060;9.342;2023-02-08T01:02:05;21.00;;;8.50;;
75459;SDS011;64039;53.060;9.342;2023-02-08T01:04:31;20.10;;;9.27;;
75459;SDS011;64039;53.060;9.342;2023-02-08T01:06:56;18.80;;;9.95;;
75459;SDS011;64039;53.060;9.342;2023-02-08T01:09:22;18.05;;;9.55;;
75459;SDS011;64039;53.060;9.342;2023-02-08T01:11:48;20.42;;;9.73;;
75459;SDS011;64039;53.060;9.342;2023-02-08T01:14:13;22.27;;;10.15;;
75459;SDS011;64039;53.060;9.342;2023-02-08T01:16:39;19.13;;;10.00;;
75459;SDS011;64039;53.060;9.342;2023-02-08T01:19:04;23.10;;;10.60;;
75459;SDS011;64039;53.060;9.342;2023-02-08T01:21:31;24.67;;;10.85;;
75459;SDS011;64039;53.060;9.342;2023-02-08T01:23:58;19.98;;;10.02;;
75459;SDS011;64039;53.060;9.342;2023-02-08T01:26:24;20.15;;;9.43;;
75459;SDS011;64039;53.060;9.342;2023-02-08T01:28:51;21.00;;;10.00;;
75459;SDS011;64039;53.060;9.342;2023-02-08T01:31:18;24.98;;;9.35;;
75459;SDS011;64039;53.060;9.342;2023-02-08T01:33:45;21.67;;;10.20;;
75459;SDS011;64039;53.060;9.342;2023-02-08T01:36:11;19.70;;;9.98;;
75459;SDS011;64039;53.060;9.342;2023-02-08T01:38:37;19.92;;;9.68;;
75459;SDS011;64039;53.060;9.342;2023-02-08T01:41:03;20.60;;;9.13;;
75459;SDS011;64039;53.060;9.342;2023-02-08T01:43:31;22.63;;;10.00;;
75459;SDS011;64039;53.060;9.342;2023-02-08T01:45:58;19.48;;;9.77;;
75459;SDS011;64039;53.060;9.342;2023-02-08T01:48:31;21.42;;;10.57;;
75459;SDS011;64039;53.060;9.342;2023-02-08T01:51:02;21.30;;;10.13;;
75459;SDS011;64039;53.060;9.342;2023-02-08T01:53:34;18.88;;;9.75;;
75459;SDS011;64039;53.060;9.342;2023-02-08T01:56:01;19.55;;;9.93;;
75459;SDS011;64039;53.060;9.342;2023-02-08T01:58:31;22.52;;;10.75;;
75459;SDS011;64039;53.060;9.342;2023-02-08T02:01:00;23.52;;;10.63;;
75459;SDS011;64039;53.060;9.342;2023-02-08T02:03:27;24.45;;;11.35;;
75459;SDS011;64039;53.060;9.342;2023-02-08T02:05:53;21.70;;;10.63;;
75459;SDS011;64039;53.060;9.342;2023-02-08T02:08:25;21.73;;;10.73;;
75459;SDS011;64039;53.060;9.342;2023-02-08T02:10:51;23.48;;;10.73;;
75459;SDS011;64039;53.060;9.342;2023-02-08T02:13:18;18.98;;;10.30;;
75459;SDS011;64039;53.060;9.342;2023-02-08T02:15:45;22.63;;;10.30;;
75459;SDS011;64039;53.060;9.342;2023-02-08T02:18:12;24.50;;;10.57;;
75459;SDS011;64039;53.060;9.342;2023-02-08T02:20:54;23.52;;;10.88;;
75459;SDS011;64039;53.060;9.342;2023-02-08T02:26:20;24.70;;;10.23;;
75459;SDS011;64039;53.060;9.342;2023-02-08T02:34:49;22.05;;;10.90;;
75459;SDS011;64039;53.060;9.342;2023-02-08T02:37:44;21.83;;;10.48;;
75459;SDS011;64039;53.060;9.342;2023-02-08T02:40:28;20.58;;;9.95;;
75459;SDS011;64039;53.060;9.342;2023-02-08T02:43:17;19.70;;;10.55;;
75459;SDS011;64039;53.060;9.342;2023-02-08T02:46:21;22.02;;;11.30;;
75459;SDS011;64039;53.060;9.342;2023-02-08T02:51:26;23.42;;;10.70;;
75459;SDS011;64039;53.060;9.342;2023-02-08T02:53:58;24.70;;;11.02;;
75459;SDS011;64039;53.060;9.342;2023-02-08T02:56:30;26.30;;;10.75;;
75459;SDS011;64039;53.060;9.342;2023-02-08T02:59:08;23.13;;;11.23;;
75459;SDS011;64039;53.060;9.342;2023-02-08T03:01:36;30.45;;;12.48;;
75459;SDS011;64039;53.060;9.342;2023-02-08T03:04:18;30.27;;;12.55;;
75459;SDS011;64039;53.060;9.342;2023-02-08T03:17:50;31.00;;;13.35;;
75459;SDS011;64039;53.060;9.342;2023-02-08T03:20:37;29.50;;;12.30;;
75459;SDS011;64039;53.060;9.342;2023-02-08T03:23:17;29.27;;;11.85;;
75459;SDS011;64039;53.060;9.342;2023-02-08T03:36:57;33.35;;;14.20;;
75459;SDS011;64039;53.060;9.342;2023-02-08T03:38:57;33.90;;;13.18;;
75459;SDS011;64039;53.060;9.342;2023-02-08T03:41:29;30.25;;;13.02;;
75459;SDS011;64039;53.060;9.342;2023-02-08T03:44:02;31.23;;;13.23;;
75459;SDS011;64039;53.060;9.342;2023-02-08T03:46:39;31.73;;;13.75;;
75459;SDS011;64039;53.060;9.342;2023-02-08T03:49:10;29.00;;;12.75;;
75459;SDS011;64039;53.060;9.342;2023-02-08T03:51:40;36.25;;;14.15;;
75459;SDS011;64039;53.060;9.342;2023-02-08T03:54:10;30.98;;;13.25;;
75459;SDS011;64039;53.060;9.342;2023-02-08T03:56:44;33.92;;;14.25;;
75459;SDS011;64039;53.060;9.342;2023-02-08T03:59:19;34.85;;;15.57;;
75459;SDS011;64039;53.060;9.342;2023-02-08T04:01:54;34.30;;;15.02;;
75459;SDS011;64039;53.060;9.342;2023-02-08T04:04:23;33.00;;;14.40;;
75459;SDS011;64039;53.060;9.342;2023-02-08T04:06:51;34.65;;;14.18;;
75459;SDS011;64039;53.060;9.342;2023-02-08T04:09:17;34.55;;;14.65;;
75459;SDS011;64039;53.060;9.342;2023-02-08T04:11:43;31.95;;;13.82;;
75459;SDS011;64039;53.060;9.342;2023-02-08T04:14:08;36.15;;;14.70;;
75459;SDS011;64039;53.060;9.342;2023-02-08T04:16:34;33.70;;;14.20;;
75459;SDS011;64039;53.060;9.342;2023-02-08T04:18:59;35.55;;;15.43;;
75459;SDS011;64039;53.060;9.342;2023-02-08T04:21:24;36.65;;;15.90;;
75459;SDS011;64039;53.060;9.342;2023-02-08T04:23:51;34.72;;;13.75;;
75459;SDS011;64039;53.060;9.342;2023-02-08T04:26:16;36.35;;;15.80;;
75459;SDS011;64039;53.060;9.342;2023-02-08T04:28:41;40.78;;;15.63;;
75459;SDS011;64039;53.060;9.342;2023-02-08T04:31:07;35.83;;;15.38;;
75459;SDS011;64039;53.060;9.342;2023-02-08T04:33:32;35.80;;;14.68;;
75459;SDS011;64039;53.060;9.342;2023-02-08T04:35:58;33.58;;;14.80;;
75459;SDS011;64039;53.060;9.342;2023-02-08T04:38:23;35.08;;;14.50;;
75459;SDS011;64039;53.060;9.342;2023-02-08T04:40:48;34.13;;;14.50;;
75459;SDS011;64039;53.060;9.342;2023-02-08T04:43:14;37.20;;;14.43;;
75459;SDS011;64039;53.060;9.342;2023-02-08T04:45:39;33.47;;;13.63;;
75459;SDS011;64039;53.060;9.342;2023-02-08T04:48:06;36.03;;;15.20;;
75459;SDS011;64039;53.060;9.342;2023-02-08T04:50:32;35.15;;;14.80;;
75459;SDS011;64039;53.060;9.342;2023-02-08T04:52:58;35.00;;;15.13;;
75459;SDS011;64039;53.060;9.342;2023-02-08T04:55:23;32.60;;;13.65;;
75459;SDS011;64039;53.060;9.342;2023-02-08T04:57:48;31.27;;;14.00;;
75459;SDS011;64039;53.060;9.342;2023-02-08T05:00:14;34.70;;;14.52;;
75459;SDS011;64039;53.060;9.342;2023-02-08T05:02:40;36.92;;;14.88;;
75459;SDS011;64039;53.060;9.342;2023-02-08T05:05:05;33.88;;;14.10;;
75459;SDS011;64039;53.060;9.342;2023-02-08T05:07:31;36.05;;;14.73;;
75459;SDS011;64039;53.060;9.342;2023-02-08T05:09:57;35.38;;;14.35;;
75459;SDS011;64039;53.060;9.342;2023-02-08T05:12:22;36.75;;;14.63;;
75459;SDS011;64039;53.060;9.342;2023-02-08T05:14:48;34.53;;;14.68;;
75459;SDS011;64039;53.060;9.342;2023-02-08T05:17:13;37.00;;;14.25;;
75459;SDS011;64039;53.060;9.342;2023-02-08T05:19:39;39.17;;;14.63;;
75459;SDS011;64039;53.060;9.342;2023-02-08T05:22:04;36.50;;;14.93;;
75459;SDS011;64039;53.060;9.342;2023-02-08T05:24:29;38.80;;;13.60;;
75459;SDS011;64039;53.060;9.342;2023-02-08T05:26:55;35.83;;;14.55;;
75459;SDS011;64039;53.060;9.342;2023-02-08T05:29:20;37.42;;;13.90;;
75459;SDS011;64039;53.060;9.342;2023-02-08T05:31:46;38.08;;;14.85;;
75459;SDS011;64039;53.060;9.342;2023-02-08T05:34:11;36.53;;;15.13;;
75459;SDS011;64039;53.060;9.342;2023-02-08T05:36:36;44.30;;;17.75;;
75459;SDS011;64039;53.060;9.342;2023-02-08T05:39:02;49.78;;;18.75;;
75459;SDS011;64039;53.060;9.342;2023-02-08T05:41:28;46.47;;;18.73;;
75459;SDS011;64039;53.060;9.342;2023-02-08T05:43:54;39.30;;;16.35;;
75459;SDS011;64039;53.060;9.342;2023-02-08T05:46:19;36.58;;;16.13;;
75459;SDS011;64039;53.060;9.342;2023-02-08T05:48:45;41.22;;;14.82;;
75459;SDS011;64039;53.060;9.342;2023-02-08T05:51:10;42.85;;;15.85;;
75459;SDS011;64039;53.060;9.342;2023-02-08T05:53:36;34.88;;;14.90;;
75459;SDS011;64039;53.060;9.342;2023-02-08T05:56:02;36.88;;;15.85;;
75459;SDS011;64039;53.060;9.342;2023-02-08T05:58:28;35.00;;;14.93;;
75459;SDS011;64039;53.060;9.342;2023-02-08T06:00:54;39.90;;;16.05;;
75459;SDS011;64039;53.060;9.342;2023-02-08T06:03:20;38.58;;;15.75;;
75459;SDS011;64039;53.060;9.342;2023-02-08T06:05:45;38.45;;;15.70;;
75459;SDS011;64039;53.060;9.342;2023-02-08T06:08:11;43.35;;;16.65;;
75459;SDS011;64039;53.060;9.342;2023-02-08T06:10:36;38.78;;;15.45;;
75459;SDS011;64039;53.060;9.342;2023-02-08T06:13:02;38.28;;;15.05;;
75459;SDS011;64039;53.060;9.342;2023-02-08T06:15:28;41.47;;;15.45;;
75459;SDS011;64039;53.060;9.342;2023-02-08T06:17:55;38.08;;;15.23;;
75459;SDS011;64039;53.060;9.342;2023-02-08T06:20:20;37.90;;;15.07;;
75459;SDS011;64039;53.060;9.342;2023-02-08T06:22:46;41.17;;;16.08;;
75459;SDS011;64039;53.060;9.342;2023-02-08T06:25:11;39.90;;;15.48;;
75459;SDS011;64039;53.060;9.342;2023-02-08T06:27:36;37.45;;;15.68;;
75459;SDS011;64039;53.060;9.342;2023-02-08T06:30:02;43.75;;;16.15;;
75459;SDS011;64039;53.060;9.342;2023-02-08T06:32:28;40.58;;;15.77;;
75459;SDS011;64039;53.060;9.342;2023-02-08T06:34:54;41.13;;;16.60;;
75459;SDS011;64039;53.060;9.342;2023-02-08T06:37:19;46.50;;;16.48;;
75459;SDS011;64039;53.060;9.342;2023-02-08T06:39:45;46.25;;;16.65;;
75459;SDS011;64039;53.060;9.342;2023-02-08T06:42:10;43.30;;;16.00;;
75459;SDS011;64039;53.060;9.342;2023-02-08T06:44:36;41.10;;;16.70;;
75459;SDS011;64039;53.060;9.342;2023-02-08T06:47:01;37.75;;;15.82;;
75459;SDS011;64039;53.060;9.342;2023-02-08T06:49:27;41.80;;;16.58;;
75459;SDS011;64039;53.060;9.342;2023-02-08T06:51:52;43.83;;;16.52;;
75459;SDS011;64039;53.060;9.342;2023-02-08T06:54:18;46.42;;;17.00;;
75459;SDS011;64039;53.060;9.342;2023-02-08T06:56:43;42.38;;;15.90;;
75459;SDS011;64039;53.060;9.342;2023-02-08T06:59:09;43.47;;;16.25;;
75459;SDS011;64039;53.060;9.342;2023-02-08T07:01:34;45.58;;;17.33;;
75459;SDS011;64039;53.060;9.342;2023-02-08T07:04:00;47.20;;;17.40;;
75459;SDS011;64039;53.060;9.342;2023-02-08T07:06:25;46.15;;;16.73;;
75459;SDS011;64039;53.060;9.342;2023-02-08T07:08:51;48.55;;;17.45;;
75459;SDS011;64039;53.060;9.342;2023-02-08T07:11:17;50.55;;;19.00;;
75459;SDS011;64039;53.060;9.342;2023-02-08T07:13:50;43.60;;;17.60;;
75459;SDS011;64039;53.060;9.342;2023-02-08T07:16:17;46.33;;;17.58;;
75459;SDS011;64039;53.060;9.342;2023-02-08T07:18:43;49.45;;;17.63;;
75459;SDS011;64039;53.060;9.342;2023-02-08T07:21:09;49.25;;;18.48;;
75459;SDS011;64039;53.060;9.342;2023-02-08T07:23:36;48.40;;;19.08;;
75459;SDS011;64039;53.060;9.342;2023-02-08T07:26:03;49.03;;;18.20;;
75459;SDS011;64039;53.060;9.342;2023-02-08T07:28:30;47.50;;;18.75;;
75459;SDS011;64039;53.060;9.342;2023-02-08T07:30:56;49.08;;;18.48;;
75459;SDS011;64039;53.060;9.342;2023-02-08T07:33:22;50.38;;;19.48;;
75459;SDS011;64039;53.060;9.342;2023-02-08T07:35:48;47.95;;;18.23;;
75459;SDS011;64039;53.060;9.342;2023-02-08T07:38:14;51.13;;;19.13;;
75459;SDS011;64039;53.060;9.342;2023-02-08T07:40:40;50.08;;;18.50;;
75459;SDS011;64039;53.060;9.342;2023-02-08T07:43:05;54.13;;;18.95;;
75459;SDS011;64039;53.060;9.342;2023-02-08T07:45:31;47.30;;;17.75;;
75459;SDS011;64039;53.060;9.342;2023-02-08T07:47:57;47.83;;;19.42;;
75459;SDS011;64039;53.060;9.342;2023-02-08T07:50:22;48.88;;;18.27;;
75459;SDS011;64039;53.060;9.342;2023-02-08T07:52:48;45.65;;;18.45;;
75459;SDS011;64039;53.060;9.342;2023-02-08T07:55:13;56.42;;;19.45;;
75459;SDS011;64039;53.060;9.342;2023-02-08T07:57:43;50.88;;;18.58;;
75459;SDS011;64039;53.060;9.342;2023-02-08T08:00:09;48.58;;;19.33;;
75459;SDS011;64039;53.060;9.342;2023-02-08T08:02:36;49.72;;;18.73;;
75459;SDS011;64039;53.060;9.342;2023-02-08T08:05:01;51.17;;;19.23;;
75459;SDS011;64039;53.060;9.342;2023-02-08T08:07:27;52.67;;;18.50;;
75459;SDS011;64039;53.060;9.342;2023-02-08T08:09:53;43.55;;;16.90;;
75459;SDS011;64039;53.060;9.342;2023-02-08T08:12:18;44.25;;;18.10;;
75459;SDS011;64039;53.060;9.342;2023-02-08T08:14:43;44.15;;;18.13;;
75459;SDS011;64039;53.060;9.342;2023-02-08T08:17:09;46.08;;;18.42;;
75459;SDS011;64039;53.060;9.342;2023-02-08T08:19:34;44.55;;;18.33;;
75459;SDS011;64039;53.060;9.342;2023-02-08T08:22:00;45.90;;;18.33;;
75459;SDS011;64039;53.060;9.342;2023-02-08T08:24:25;46.60;;;18.27;;
75459;SDS011;64039;53.060;9.342;2023-02-08T08:26:50;47.33;;;17.25;;
75459;SDS011;64039;53.060;9.342;2023-02-08T08:29:16;47.97;;;18.75;;
75459;SDS011;64039;53.060;9.342;2023-02-08T08:31:42;42.13;;;16.45;;
75459;SDS011;64039;53.060;9.342;2023-02-08T08:34:08;45.28;;;17.75;;
75459;SDS011;64039;53.060;9.342;2023-02-08T08:36:33;48.55;;;17.35;;
75459;SDS011;64039;53.060;9.342;2023-02-08T08:38:59;48.40;;;18.77;;
75459;SDS011;64039;53.060;9.342;2023-02-08T08:41:24;48.40;;;18.50;;
75459;SDS011;64039;53.060;9.342;2023-02-08T08:43:51;48.20;;;17.20;;
75459;SDS011;64039;53.060;9.342;2023-02-08T08:46:17;47.63;;;18.83;;
75459;SDS011;64039;53.060;9.342;2023-02-08T08:48:43;47.15;;;18.02;;
75459;SDS011;64039;53.060;9.342;2023-02-08T08:51:08;44.97;;;17.92;;
75459;SDS011;64039;53.060;9.342;2023-02-08T08:53:34;45.88;;;18.08;;
75459;SDS011;64039;53.060;9.342;2023-02-08T08:56:01;46.67;;;17.38;;
75459;SDS011;64039;53.060;9.342;2023-02-08T08:58:26;44.63;;;17.05;;
75459;SDS011;64039;53.060;9.342;2023-02-08T09:00:53;41.25;;;16.38;;
75459;SDS011;64039;53.060;9.342;2023-02-08T09:03:21;42.05;;;17.45;;
75459;SDS011;64039;53.060;9.342;2023-02-08T09:05:46;44.63;;;16.27;;
75459;SDS011;64039;53.060;9.342;2023-02-08T09:08:12;43.78;;;17.67;;
75459;SDS011;64039;53.060;9.342;2023-02-08T09:10:38;43.22;;;16.75;;
75459;SDS011;64039;53.060;9.342;2023-02-08T09:13:03;41.25;;;16.17;;
75459;SDS011;64039;53.060;9.342;2023-02-08T09:15:29;43.40;;;16.63;;
75459;SDS011;64039;53.060;9.342;2023-02-08T09:17:54;41.38;;;17.05;;
75459;SDS011;64039;53.060;9.342;2023-02-08T09:20:20;41.70;;;16.80;;
75459;SDS011;64039;53.060;9.342;2023-02-08T09:22:45;39.00;;;15.93;;
75459;SDS011;64039;53.060;9.342;2023-02-08T09:25:11;38.75;;;15.23;;
75459;SDS011;64039;53.060;9.342;2023-02-08T09:27:37;39.60;;;15.23;;
75459;SDS011;64039;53.060;9.342;2023-02-08T09:30:03;41.50;;;14.85;;
75459;SDS011;64039;53.060;9.342;2023-02-08T09:32:31;39.05;;;15.43;;
75459;SDS011;64039;53.060;9.342;2023-02-08T09:35:03;37.05;;;14.95;;
75459;SDS011;64039;53.060;9.342;2023-02-08T09:37:30;38.05;;;14.77;;
75459;SDS011;64039;53.060;9.342;2023-02-08T09:39:55;37.50;;;14.65;;
75459;SDS011;64039;53.060;9.342;2023-02-08T09:45:19;37.55;;;15.82;;
75459;SDS011;64039;53.060;9.342;2023-02-08T09:48:15;36.35;;;14.45;;
75459;SDS011;64039;53.060;9.342;2023-02-08T09:56:39;34.25;;;15.15;;
75459;SDS011;64039;53.060;9.342;2023-02-08T09:59:16;36.25;;;14.43;;
75459;SDS011;64039;53.060;9.342;2023-02-08T10:01:47;35.72;;;14.35;;
75459;SDS011;64039;53.060;9.342;2023-02-08T10:07:26;31.60;;;13.90;;
75459;SDS011;64039;53.060;9.342;2023-02-08T10:09:53;38.28;;;15.13;;
75459;SDS011;64039;53.060;9.342;2023-02-08T10:32:26;34.45;;;13.13;;
75459;SDS011;64039;53.060;9.342;2023-02-08T10:35:10;34.13;;;13.48;;
75459;SDS011;64039;53.060;9.342;2023-02-08T10:37:39;27.63;;;11.85;;
75459;SDS011;64039;53.060;9.342;2023-02-08T10:51:32;30.35;;;12.82;;
75459;SDS011;64039;53.060;9.342;2023-02-08T10:53:58;36.40;;;14.30;;
75459;SDS011;64039;53.060;9.342;2023-02-08T10:56:33;31.23;;;14.15;;
75459;SDS011;64039;53.060;9.342;2023-02-08T10:59:13;34.00;;;12.75;;
75459;SDS011;64039;53.060;9.342;2023-02-08T11:01:39;34.15;;;13.75;;
75459;SDS011;64039;53.060;9.342;2023-02-08T11:04:08;29.73;;;13.20;;
75459;SDS011;64039;53.060;9.342;2023-02-08T11:06:35;29.15;;;12.88;;
75459;SDS011;64039;53.060;9.342;2023-02-08T11:09:02;27.40;;;12.60;;
75459;SDS011;64039;53.060;9.342;2023-02-08T11:11:35;30.95;;;13.40;;
75459;SDS011;64039;53.060;9.342;2023-02-08T11:14:04;30.17;;;13.15;;
75459;SDS011;64039;53.060;9.342;2023-02-08T11:16:33;29.85;;;13.20;;
75459;SDS011;64039;53.060;9.342;2023-02-08T11:19:01;28.80;;;12.38;;
75459;SDS011;64039;53.060;9.342;2023-02-08T11:21:32;30.20;;;13.00;;
75459;SDS011;64039;53.060;9.342;2023-02-08T11:24:03;28.20;;;12.20;;
75459;SDS011;64039;53.060;9.342;2023-02-08T11:26:40;28.98;;;12.45;;
75459;SDS011;64039;53.060;9.342;2023-02-08T11:29:19;32.75;;;13.82;;
75459;SDS011;64039;53.060;9.342;2023-02-08T11:34:23;31.83;;;12.23;;
75459;SDS011;64039;53.060;9.342;2023-02-08T11:36:49;32.75;;;13.38;;
75459;SDS011;64039;53.060;9.342;2023-02-08T11:39:20;30.35;;;12.48;;
75459;SDS011;64039;53.060;9.342;2023-02-08T11:41:52;33.45;;;14.90;;
75459;SDS011;64039;53.060;9.342;2023-02-08T11:44:31;28.65;;;12.70;;
75459;SDS011;64039;53.060;9.342;2023-02-08T11:47:00;28.23;;;11.27;;
75459;SDS011;64039;53.060;9.342;2023-02-08T11:49:38;30.40;;;12.90;;
75459;SDS011;64039;53.060;9.342;2023-02-08T11:52:28;31.13;;;12.23;;
75459;SDS011;64039;53.060;9.342;2023-02-08T11:55:18;25.60;;;11.40;;
75459;SDS011;64039;53.060;9.342;2023-02-08T12:00:42;28.17;;;12.30;;
75459;SDS011;64039;53.060;9.342;2023-02-08T12:03:24;24.33;;;10.98;;
75459;SDS011;64039;53.060;9.342;2023-02-08T12:14:10;24.10;;;10.60;;
75459;SDS011;64039;53.060;9.342;2023-02-08T12:19:56;23.98;;;10.23;;
75459;SDS011;64039;53.060;9.342;2023-02-08T12:22:36;21.17;;;8.80;;
75459;SDS011;64039;53.060;9.342;2023-02-08T12:25:20;20.70;;;8.55;;
75459;SDS011;64039;53.060;9.342;2023-02-08T12:28:07;20.70;;;8.98;;
75459;SDS011;64039;53.060;9.342;2023-02-08T12:30:43;21.50;;;9.50;;
75459;SDS011;64039;53.060;9.342;2023-02-08T12:33:27;20.92;;;9.38;;
75459;SDS011;64039;53.060;9.342;2023-02-08T12:41:30;21.55;;;9.57;;
75459;SDS011;64039;53.060;9.342;2023-02-08T12:44:19;24.98;;;9.50;;
75459;SDS011;64039;53.060;9.342;2023-02-08T12:52:59;20.48;;;8.95;;
75459;SDS011;64039;53.060;9.342;2023-02-08T12:55:33;21.13;;;9.18;;
75459;SDS011;64039;53.060;9.342;2023-02-08T12:58:11;22.77;;;9.13;;
75459;SDS011;64039;53.060;9.342;2023-02-08T13:00:41;19.77;;;8.52;;
75459;SDS011;64039;53.060;9.342;2023-02-08T13:03:17;19.25;;;8.48;;
75459;SDS011;64039;53.060;9.342;2023-02-08T13:05:55;19.88;;;8.30;;
75459;SDS011;64039;53.060;9.342;2023-02-08T13:08:29;18.80;;;8.23;;
75459;SDS011;64039;53.060;9.342;2023-02-08T13:11:06;20.55;;;8.98;;
75459;SDS011;64039;53.060;9.342;2023-02-08T13:13:41;18.00;;;8.20;;
75459;SDS011;64039;53.060;9.342;2023-02-08T13:16:19;22.00;;;8.77;;
75459;SDS011;64039;53.060;9.342;2023-02-08T13:19:05;16.50;;;7.85;;
75459;SDS011;64039;53.060;9.342;2023-02-08T13:21:50;18.38;;;8.80;;
75459;SDS011;64039;53.060;9.342;2023-02-08T13:24:21;18.00;;;8.07;;
75459;SDS011;64039;53.060;9.342;2023-02-08T13:27:00;18.58;;;8.63;;
75459;SDS011;64039;53.060;9.342;2023-02-08T13:29:26;17.67;;;8.82;;
75459;SDS011;64039;53.060;9.342;2023-02-08T13:31:58;32.17;;;13.45;;
75459;SDS011;64039;53.060;9.342;2023-02-08T13:34:35;21.25;;;8.40;;
75459;SDS011;64039;53.060;9.342;2023-02-08T13:37:15;20.95;;;8.68;;
75459;SDS011;64039;53.060;9.342;2023-02-08T13:39:43;17.20;;;7.88;;
75459;SDS011;64039;53.060;9.342;2023-02-08T13:48:08;20.77;;;9.13;;
75459;SDS011;64039;53.060;9.342;2023-02-08T13:50:37;19.40;;;8.82;;
75459;SDS011;64039;53.060;9.342;2023-02-08T13:53:11;15.60;;;7.47;;
75459;SDS011;64039;53.060;9.342;2023-02-08T14:00:43;17.08;;;6.78;;
75459;SDS011;64039;53.060;9.342;2023-02-08T14:03:24;16.73;;;6.45;;
75459;SDS011;64039;53.060;9.342;2023-02-08T14:05:52;14.18;;;6.60;;
75459;SDS011;64039;53.060;9.342;2023-02-08T14:13:51;15.82;;;6.18;;
75459;SDS011;64039;53.060;9.342;2023-02-08T14:19:04;16.80;;;7.45;;
75459;SDS011;64039;53.060;9.342;2023-02-08T14:21:46;17.90;;;6.15;;
75459;SDS011;64039;53.060;9.342;2023-02-08T14:24:25;16.88;;;6.55;;
75459;SDS011;64039;53.060;9.342;2023-02-08T14:27:08;12.82;;;6.63;;
75459;SDS011;64039;53.060;9.342;2023-02-08T14:30:02;12.05;;;6.10;;
75459;SDS011;64039;53.060;9.342;2023-02-08T14:32:32;15.27;;;6.50;;
75459;SDS011;64039;53.060;9.342;2023-02-08T14:35:03;14.98;;;6.13;;
75459;SDS011;64039;53.060;9.342;2023-02-08T14:37:35;15.80;;;6.13;;
75459;SDS011;64039;53.060;9.342;2023-02-08T14:45:27;15.70;;;6.68;;
75459;SDS011;64039;53.060;9.342;2023-02-08T14:47:54;14.77;;;6.72;;
75459;SDS011;64039;53.060;9.342;2023-02-08T14:50:25;17.67;;;7.88;;
75459;SDS011;64039;53.060;9.342;2023-02-08T14:52:57;15.20;;;7.45;;
75459;SDS011;64039;53.060;9.342;2023-02-08T14:55:32;16.30;;;7.38;;
75459;SDS011;64039;53.060;9.342;2023-02-08T14:58:06;17.23;;;6.90;;
75459;SDS011;64039;53.060;9.342;2023-02-08T15:00:39;16.38;;;6.80;;
75459;SDS011;64039;53.060;9.342;2023-02-08T15:03:11;15.80;;;7.47;;
75459;SDS011;64039;53.060;9.342;2023-02-08T15:05:57;18.38;;;8.15;;
75459;SDS011;64039;53.060;9.342;2023-02-08T15:08:37;18.60;;;7.70;;
75459;SDS011;64039;53.060;9.342;2023-02-08T15:11:03;19.42;;;8.52;;
75459;SDS011;64039;53.060;9.342;2023-02-08T15:13:29;19.98;;;9.13;;
75459;SDS011;64039;53.060;9.342;2023-02-08T15:15:55;19.75;;;8.05;;
75459;SDS011;64039;53.060;9.342;2023-02-08T15:18:23;18.75;;;7.70;;
75459;SDS011;64039;53.060;9.342;2023-02-08T15:20:59;17.85;;;8.85;;
75459;SDS011;64039;53.060;9.342;2023-02-08T15:23:27;23.42;;;9.77;;
75459;SDS011;64039;53.060;9.342;2023-02-08T15:26:02;23.17;;;9.98;;
75459;SDS011;64039;53.060;9.342;2023-02-08T15:28:30;23.58;;;10.63;;
75459;SDS011;64039;53.060;9.342;2023-02-08T15:31:00;19.10;;;8.32;;
75459;SDS011;64039;53.060;9.342;2023-02-08T15:33:29;22.05;;;9.25;;
75459;SDS011;64039;53.060;9.342;2023-02-08T15:36:00;21.90;;;9.38;;
75459;SDS011;64039;53.060;9.342;2023-02-08T15:38:29;26.08;;;10.63;;
75459;SDS011;64039;53.060;9.342;2023-02-08T15:41:14;45.08;;;17.88;;
75459;SDS011;64039;53.060;9.342;2023-02-08T15:43:48;69.35;;;27.02;;
75459;SDS011;64039;53.060;9.342;2023-02-08T15:46:24;54.47;;;20.98;;
75459;SDS011;64039;53.060;9.342;2023-02-08T15:48:51;74.72;;;24.65;;
75459;SDS011;64039;53.060;9.342;2023-02-08T15:51:18;61.17;;;22.27;;
75459;SDS011;64039;53.060;9.342;2023-02-08T15:53:49;115.18;;;41.70;;
75459;SDS011;64039;53.060;9.342;2023-02-08T15:56:31;156.30;;;56.80;;
75459;SDS011;64039;53.060;9.342;2023-02-08T15:59:01;113.18;;;40.45;;
75459;SDS011;64039;53.060;9.342;2023-02-08T16:01:30;97.00;;;45.33;;
75459;SDS011;64039;53.060;9.342;2023-02-08T16:03:57;59.60;;;26.15;;
75459;SDS011;64039;53.060;9.342;2023-02-08T16:06:25;40.90;;;18.90;;
75459;SDS011;64039;53.060;9.342;2023-02-08T16:08:53;33.97;;;16.48;;
75459;SDS011;64039;53.060;9.342;2023-02-08T16:11:29;37.97;;;17.63;;
75459;SDS011;64039;53.060;9.342;2023-02-08T16:13:57;33.73;;;17.60;;
75459;SDS011;64039;53.060;9.342;2023-02-08T16:19:18;30.52;;;15.40;;
75459;SDS011;64039;53.060;9.342;2023-02-08T16:21:45;153.68;;;56.22;;
75459;SDS011;64039;53.060;9.342;2023-02-08T16:29:25;56.45;;;23.20;;
75459;SDS011;64039;53.060;9.342;2023-02-08T16:32:04;77.63;;;34.33;;
75459;SDS011;64039;53.060;9.342;2023-02-08T16:34:33;112.07;;;43.85;;
75459;SDS011;64039;53.060;9.342;2023-02-08T16:37:02;136.70;;;49.10;;
75459;SDS011;64039;53.060;9.342;2023-02-08T16:47:39;121.97;;;43.17;;
75459;SDS011;64039;53.060;9.342;2023-02-08T16:50:08;44.47;;;14.68;;
75459;SDS011;64039;53.060;9.342;2023-02-08T16:52:36;57.03;;;21.80;;
75459;SDS011;64039;53.060;9.342;2023-02-08T16:55:02;124.28;;;44.85;;
75459;SDS011;64039;53.060;9.342;2023-02-08T16:57:44;100.15;;;36.20;;
75459;SDS011;64039;53.060;9.342;2023-02-08T17:00:23;244.38;;;66.25;;
75459;SDS011;64039;53.060;9.342;2023-02-08T17:02:50;147.77;;;40.45;;
75459;SDS011;64039;53.060;9.342;2023-02-08T17:05:17;67.13;;;23.20;;